createdAt,value
2022-09-20T00:01:51.947Z,0.90
2022-09-20T00:04:53.899Z,0.80
2022-09-20T00:07:55.317Z,1.20
2022-09-20T00:11:10.079Z,0.80
2022-09-20T00:14:12.436Z,1.05
2022-09-20T00:17:13.855Z,1.35
2022-09-20T00:20:15.267Z,0.90
2022-09-20T00:23:18.026Z,0.98
2022-09-20T00:26:20.265Z,0.75
2022-09-20T00:29:21.705Z,0.90
2022-09-20T00:32:23.092Z,1.27
2022-09-20T00:35:25.185Z,1.33
2022-09-20T00:38:26.555Z,1.50
2022-09-20T00:41:29.648Z,1.30
2022-09-20T00:45:04.831Z,1.17
2022-09-20T00:48:27.299Z,2.05
2022-09-20T00:51:34.293Z,1.63
2022-09-20T00:54:36.430Z,1.10
2022-09-20T00:57:39.047Z,0.90
2022-09-20T01:00:42.793Z,0.88
2022-09-20T01:03:45.449Z,1.45
2022-09-20T01:06:49.070Z,1.10
2022-09-20T01:09:51.018Z,0.80
2022-09-20T01:12:53.702Z,0.80
2022-09-20T01:15:56.644Z,0.85
2022-09-20T01:19:02.473Z,0.80
2022-09-20T01:22:13.388Z,1.00
2022-09-20T01:25:30.068Z,0.60
2022-09-20T01:28:32.174Z,1.35
2022-09-20T01:31:36.292Z,1.50
2022-09-20T01:34:45.966Z,0.82
2022-09-20T01:38:02.973Z,0.70
2022-09-20T01:41:28.587Z,1.10
2022-09-20T01:44:56.037Z,0.90
2022-09-20T01:48:09.780Z,1.00
2022-09-20T01:51:29.955Z,0.73
2022-09-20T01:55:05.990Z,0.93
2022-09-20T01:58:47.002Z,1.20
2022-09-20T02:02:32.349Z,1.05
2022-09-20T02:05:52.919Z,0.80
2022-09-20T02:09:16.208Z,0.80
2022-09-20T02:12:45.288Z,1.10
2022-09-20T02:16:20.768Z,0.68
2022-09-20T02:19:41.376Z,1.52
2022-09-20T02:22:51.984Z,0.70
2022-09-20T02:26:10.977Z,1.17
2022-09-20T02:29:34.247Z,1.35
2022-09-20T02:32:47.771Z,1.05
2022-09-20T02:36:22.704Z,0.93
2022-09-20T02:39:56.274Z,0.68
2022-09-20T02:43:14.062Z,1.17
2022-09-20T02:46:26.592Z,1.30
2022-09-20T02:49:49.776Z,1.00
2022-09-20T02:53:10.034Z,1.60
2022-09-20T02:56:27.896Z,0.80
2022-09-20T02:59:44.362Z,0.88
2022-09-20T03:03:19.892Z,1.20
2022-09-20T03:06:48.166Z,1.13
2022-09-20T03:10:16.851Z,1.10
2022-09-20T03:13:39.250Z,1.40
2022-09-20T03:17:12.682Z,1.17
2022-09-20T03:20:31.073Z,0.73
2022-09-20T03:23:54.148Z,0.90
2022-09-20T03:27:05.126Z,1.05
2022-09-20T03:30:35.294Z,1.00
2022-09-20T03:33:59.932Z,1.00
2022-09-20T03:37:13.248Z,1.40
2022-09-20T03:40:22.613Z,0.73
2022-09-20T03:43:24.139Z,0.88
2022-09-20T03:46:42.376Z,0.70
2022-09-20T03:50:15.934Z,0.60
2022-09-20T03:53:26.296Z,0.75
2022-09-20T03:57:05.332Z,1.20
2022-09-20T04:00:15.886Z,1.17
2022-09-20T04:03:35.737Z,0.90
2022-09-20T04:07:01.331Z,0.82
2022-09-20T04:10:28.091Z,1.10
2022-09-20T04:14:23.880Z,0.82
2022-09-20T04:17:38.807Z,0.90
2022-09-20T04:20:46.725Z,1.00
2022-09-20T04:24:00.800Z,1.10
2022-09-20T04:27:23.940Z,0.82
2022-09-20T04:30:28.849Z,0.98
2022-09-20T04:33:36.980Z,0.98
2022-09-20T04:37:02.676Z,0.90
2022-09-20T04:40:41.254Z,0.90
2022-09-20T04:44:18.357Z,1.00
2022-09-20T04:47:37.253Z,1.13
2022-09-20T04:51:02.780Z,1.00
2022-09-20T04:54:25.440Z,0.80
2022-09-20T04:57:53.822Z,0.75
2022-09-20T05:01:19.748Z,0.88
2022-09-20T05:04:55.455Z,0.85
2022-09-20T05:08:16.289Z,0.82
2022-09-20T05:11:30.396Z,0.60
2022-09-20T05:14:53.970Z,0.73
2022-09-20T05:18:16.928Z,1.30
2022-09-20T05:21:58.052Z,0.70
2022-09-20T05:25:27.103Z,0.85
2022-09-20T05:28:35.935Z,0.70
2022-09-20T05:31:48.325Z,0.85
2022-09-20T05:35:05.845Z,0.75
2022-09-20T05:38:15.862Z,0.90
2022-09-20T05:41:44.004Z,0.70
2022-09-20T05:45:04.208Z,1.50
2022-09-20T05:48:14.706Z,1.45
2022-09-20T05:51:31.193Z,0.98
2022-09-20T05:54:54.676Z,1.30
2022-09-20T05:58:01.599Z,0.90
2022-09-20T06:01:17.463Z,0.90
2022-09-20T06:04:26.120Z,0.77
2022-09-20T06:07:55.449Z,1.10
2022-09-20T06:11:20.091Z,1.02
2022-09-20T06:14:25.220Z,1.60
2022-09-20T06:18:23.748Z,1.23
2022-09-20T06:21:36.786Z,0.90
2022-09-20T06:25:03.237Z,1.35
2022-09-20T06:28:13.109Z,1.20
2022-09-20T06:31:15.467Z,1.48
2022-09-20T06:34:16.857Z,1.42
2022-09-20T06:37:42.991Z,1.20
2022-09-20T06:41:19.903Z,1.45
2022-09-20T06:44:21.299Z,1.38
2022-09-20T06:47:23.218Z,0.80
2022-09-20T06:50:25.277Z,0.85
2022-09-20T06:53:33.382Z,1.20
2022-09-20T06:56:36.615Z,1.15
2022-09-20T06:59:38.067Z,1.10
2022-09-20T07:02:39.538Z,0.82
2022-09-20T07:05:40.960Z,0.88
2022-09-20T07:08:43.306Z,1.25
2022-09-20T07:11:46.075Z,0.90
2022-09-20T07:14:47.726Z,1.30
2022-09-20T07:17:49.355Z,0.80
2022-09-20T07:20:50.806Z,0.95
2022-09-20T07:23:53.934Z,1.00
2022-09-20T07:27:03.026Z,0.77
2022-09-20T07:30:04.817Z,1.20
2022-09-20T07:33:07.600Z,1.10
2022-09-20T07:36:10.140Z,1.30
2022-09-20T07:39:11.551Z,1.30
2022-09-20T07:42:13.562Z,1.50
2022-09-20T07:45:15.021Z,1.25
2022-09-20T07:48:16.414Z,1.45
2022-09-20T07:51:17.797Z,1.02
2022-09-20T07:54:19.535Z,1.50
2022-09-20T07:57:20.896Z,1.75
2022-09-20T08:00:22.348Z,1.67
2022-09-20T08:03:24.399Z,1.73
2022-09-20T08:06:26.735Z,1.80
2022-09-20T08:09:28.144Z,2.00
2022-09-20T08:15:52.021Z,2.40
2022-09-20T08:19:01.601Z,2.00
2022-09-20T08:22:03.022Z,2.72
2022-09-20T08:25:05.314Z,2.30
2022-09-20T08:28:06.685Z,2.75
2022-09-20T08:31:21.992Z,1.60
2022-09-20T08:34:24.267Z,1.40
2022-09-20T08:37:26.494Z,1.55
2022-09-20T08:40:30.453Z,1.70
2022-09-20T08:43:45.586Z,1.90
2022-09-20T08:46:51.719Z,1.33
2022-09-20T08:49:57.717Z,1.10
2022-09-20T08:53:04.792Z,1.02
2022-09-20T08:56:06.509Z,1.17
2022-09-20T08:59:15.830Z,1.25
2022-09-20T09:02:20.317Z,1.10
2022-09-20T09:05:33.066Z,1.15
2022-09-20T09:08:38.323Z,1.10
2022-09-20T09:11:45.897Z,1.00
2022-09-20T09:14:57.291Z,0.90
2022-09-20T09:17:58.964Z,0.75
2022-09-20T09:21:04.081Z,0.75
2022-09-20T09:24:12.658Z,1.08
2022-09-20T09:27:19.399Z,0.80
2022-09-20T09:30:30.173Z,0.85
2022-09-20T09:33:34.181Z,0.80
2022-09-20T09:36:44.128Z,0.65
2022-09-20T09:39:45.515Z,1.15
2022-09-20T09:42:53.029Z,0.80
2022-09-20T09:45:55.683Z,1.45
2022-09-20T09:49:18.758Z,0.93
2022-09-20T09:52:24.731Z,0.70
2022-09-20T09:55:39.021Z,0.80
2022-09-20T09:59:10.490Z,0.80
2022-09-20T10:02:12.806Z,0.90
2022-09-20T10:05:32.864Z,0.93
2022-09-20T10:08:35.265Z,0.70
2022-09-20T10:12:17.576Z,1.00
2022-09-20T10:15:28.856Z,1.30
2022-09-20T10:18:37.317Z,0.63
2022-09-20T10:21:48.677Z,0.60
2022-09-20T10:25:11.563Z,1.08
2022-09-20T10:28:33.324Z,0.90
2022-09-20T10:31:50.546Z,0.60
2022-09-20T10:34:57.993Z,0.98
2022-09-20T10:38:13.120Z,1.10
2022-09-20T10:41:50.977Z,1.10
2022-09-20T10:45:29.031Z,0.90
2022-09-20T10:48:47.333Z,1.45
2022-09-20T10:52:09.020Z,0.90
2022-09-20T10:55:41.944Z,1.13
2022-09-20T10:59:31.573Z,0.83
2022-09-20T11:02:38.630Z,1.33
2022-09-20T11:06:01.619Z,0.75
2022-09-20T11:09:13.271Z,0.90
2022-09-20T11:12:39.378Z,0.80
2022-09-20T11:15:59.580Z,0.80
2022-09-20T11:19:09.175Z,0.90
2022-09-20T11:22:22.913Z,0.70
2022-09-20T11:25:39.682Z,0.95
2022-09-20T11:28:46.656Z,0.60
2022-09-20T11:31:52.925Z,0.80
2022-09-20T11:35:03.194Z,1.02
2022-09-20T11:38:31.190Z,0.60
2022-09-20T11:41:33.438Z,0.60
2022-09-20T11:44:40.758Z,0.57
2022-09-20T11:47:55.351Z,0.98
2022-09-20T11:51:08.658Z,0.73
2022-09-20T11:54:12.969Z,0.40
2022-09-20T11:57:16.583Z,0.50
2022-09-20T12:00:30.047Z,0.52
2022-09-20T12:03:39.962Z,0.70
2022-09-20T12:06:42.752Z,1.30
2022-09-20T12:09:51.678Z,0.75
2022-09-20T12:12:59.751Z,0.60
2022-09-20T12:16:05.312Z,0.73
2022-09-20T12:19:10.940Z,1.58
2022-09-20T12:22:26.867Z,1.17
2022-09-20T12:25:37.834Z,0.82
2022-09-20T12:28:44.405Z,0.98
2022-09-20T12:31:48.892Z,0.70
2022-09-20T12:34:50.470Z,1.13
2022-09-20T12:37:51.888Z,1.10
2022-09-20T12:41:08.466Z,1.05
2022-09-20T12:44:32.073Z,0.93
2022-09-20T12:47:35.537Z,0.80
2022-09-20T12:54:08.908Z,1.10
2022-09-20T12:57:27.278Z,1.30
2022-09-20T13:00:59.183Z,1.30
2022-09-20T13:04:53.624Z,1.30
2022-09-20T13:08:01.854Z,1.52
2022-09-20T13:11:19.059Z,1.30
2022-09-20T13:14:24.576Z,1.30
2022-09-20T13:17:30.822Z,1.20
2022-09-20T13:20:34.903Z,1.00
2022-09-20T13:23:54.052Z,1.10
2022-09-20T13:27:01.752Z,1.50
2022-09-20T13:30:24.323Z,1.50
2022-09-20T13:33:25.693Z,1.27
2022-09-20T13:36:30.076Z,1.45
2022-09-20T13:39:35.969Z,1.30
2022-09-20T13:42:37.410Z,1.00
2022-09-20T13:45:42.606Z,1.05
2022-09-20T13:49:24.808Z,0.80
2022-09-20T13:52:28.752Z,0.80
2022-09-20T13:55:40.327Z,0.90
2022-09-20T13:58:42.535Z,0.80
2022-09-20T14:01:54.749Z,0.80
2022-09-20T14:05:00.580Z,0.90
2022-09-20T14:08:03.086Z,0.80
2022-09-20T14:11:15.862Z,1.40
2022-09-20T14:14:22.184Z,1.10
2022-09-20T14:17:25.429Z,0.98
2022-09-20T14:20:26.989Z,1.00
2022-09-20T14:23:30.088Z,1.00
2022-09-20T14:26:39.821Z,0.77
2022-09-20T14:29:55.012Z,1.00
2022-09-20T14:32:58.271Z,0.93
2022-09-20T14:35:59.823Z,1.00
2022-09-20T14:39:03.970Z,1.00
2022-09-20T14:42:19.040Z,0.90
2022-09-20T14:45:32.587Z,0.82
2022-09-20T14:51:39.521Z,0.68
2022-09-20T14:54:41.935Z,0.57
2022-09-20T14:57:45.729Z,0.65
2022-09-20T15:00:51.040Z,0.60
2022-09-20T15:03:53.574Z,1.08
2022-09-20T15:06:56.952Z,0.87
2022-09-20T15:09:59.364Z,0.60
2022-09-20T15:13:01.091Z,0.80
2022-09-20T15:16:02.535Z,0.73
2022-09-20T15:19:06.112Z,0.65
2022-09-20T15:22:11.578Z,0.70
2022-09-20T15:25:16.088Z,0.70
2022-09-20T15:28:18.409Z,0.73
2022-09-20T15:31:20.113Z,0.82
2022-09-20T15:34:21.588Z,0.73
2022-09-20T15:37:23.069Z,1.00
2022-09-20T15:40:24.689Z,0.95
2022-09-20T15:43:27.426Z,0.93
2022-09-20T15:46:28.880Z,1.00
2022-09-20T15:49:31.291Z,0.60
2022-09-20T15:52:34.569Z,0.60
2022-09-20T15:55:38.728Z,0.70
2022-09-20T15:58:45.530Z,0.68
2022-09-20T16:01:48.098Z,0.60
2022-09-20T16:04:54.510Z,0.73
2022-09-20T16:07:57.982Z,0.60
2022-09-20T16:11:00.045Z,1.13
2022-09-20T16:14:01.825Z,1.30
2022-09-20T16:17:03.261Z,0.70
2022-09-20T16:20:04.882Z,0.77
2022-09-20T16:23:06.302Z,0.70
2022-09-20T16:26:14.892Z,0.93
2022-09-20T16:29:17.590Z,0.80
2022-09-20T16:32:19.164Z,0.68
2022-09-20T16:35:20.624Z,0.82
2022-09-20T16:38:22.905Z,0.80
2022-09-20T16:41:26.293Z,0.88
2022-09-20T16:47:29.597Z,0.98
2022-09-20T16:50:31.022Z,0.70
2022-09-20T16:53:32.390Z,0.80
2022-09-20T16:56:35.246Z,0.70
2022-09-20T16:59:36.641Z,0.70
2022-09-20T17:02:38.053Z,0.73
2022-09-20T17:05:42.199Z,1.00
2022-09-20T17:08:44.795Z,0.60
2022-09-20T17:11:49.924Z,1.00
2022-09-20T17:14:51.306Z,1.08
2022-09-20T17:17:52.671Z,1.00
2022-09-20T17:20:54.070Z,1.00
2022-09-20T17:23:58.627Z,1.00
2022-09-20T17:27:01.656Z,1.13
2022-09-20T17:30:04.565Z,1.48
2022-09-20T17:33:08.761Z,2.17
2022-09-20T17:36:15.332Z,1.33
2022-09-20T17:39:17.511Z,1.20
2022-09-20T17:42:19.644Z,1.23
2022-09-20T17:45:21.129Z,1.42
2022-09-20T17:48:25.760Z,1.23
2022-09-20T17:51:31.869Z,1.05
2022-09-20T17:54:33.741Z,0.82
2022-09-20T17:57:36.990Z,0.80
2022-09-20T18:00:38.930Z,0.60
2022-09-20T18:03:43.372Z,0.80
2022-09-20T18:06:47.183Z,0.85
2022-09-20T18:09:48.617Z,0.85
2022-09-20T18:12:50.038Z,1.02
2022-09-20T18:15:51.866Z,0.93
2022-09-20T18:18:53.917Z,0.88
2022-09-20T18:21:55.339Z,1.40
2022-09-20T18:24:56.787Z,0.75
2022-09-20T18:27:58.414Z,1.10
2022-09-20T18:31:04.205Z,0.88
2022-09-20T18:34:11.467Z,0.98
2022-09-20T18:37:14.842Z,0.88
2022-09-20T18:40:16.604Z,0.80
2022-09-20T18:43:18.073Z,0.80
2022-09-20T18:46:24.906Z,1.23
2022-09-20T18:49:26.580Z,1.27
2022-09-20T18:52:29.670Z,0.90
2022-09-20T18:55:31.463Z,1.00
2022-09-20T18:58:33.114Z,0.88
2022-09-20T19:01:59.293Z,0.90
2022-09-20T19:05:28.908Z,1.20
2022-09-20T19:08:37.802Z,1.08
2022-09-20T19:11:46.865Z,0.90
2022-09-20T19:15:00.113Z,0.95
2022-09-20T19:18:23.582Z,1.30
2022-09-20T19:21:42.934Z,0.90
2022-09-20T19:25:01.207Z,0.73
2022-09-20T19:28:03.011Z,0.90
2022-09-20T19:31:04.784Z,1.20
2022-09-20T19:34:16.491Z,1.05
2022-09-20T19:37:37.935Z,1.00
2022-09-20T19:40:59.445Z,0.98
2022-09-20T19:44:22.765Z,0.90
2022-09-20T19:47:47.124Z,0.90
2022-09-20T19:50:52.388Z,1.40
2022-09-20T19:53:55.331Z,2.85
2022-09-20T19:56:59.384Z,1.70
2022-09-20T20:00:01.078Z,1.52
2022-09-20T20:03:02.706Z,1.20
2022-09-20T20:06:16.257Z,1.30
2022-09-20T20:09:56.136Z,1.02
2022-09-20T20:13:32.633Z,1.65
2022-09-20T20:16:48.877Z,1.10
2022-09-20T20:20:12.211Z,1.30
2022-09-20T20:23:39.658Z,1.17
2022-09-20T20:26:41.476Z,1.20
2022-09-20T20:29:42.985Z,1.30
2022-09-20T20:32:45.573Z,1.30
2022-09-20T20:35:54.253Z,1.67
2022-09-20T20:38:56.429Z,2.88
2022-09-20T20:42:02.279Z,3.30
2022-09-20T20:45:04.442Z,3.35
2022-09-20T20:48:06.157Z,2.10
2022-09-20T20:51:17.371Z,2.30
2022-09-20T20:54:18.798Z,1.90
2022-09-20T20:57:20.273Z,1.65
2022-09-20T21:00:21.773Z,1.50
2022-09-20T21:03:23.218Z,1.60
2022-09-20T21:06:30.454Z,1.55
2022-09-20T21:09:32.069Z,1.85
2022-09-20T21:12:33.533Z,1.63
2022-09-20T21:15:35.288Z,1.27
2022-09-20T21:18:38.369Z,1.80
2022-09-20T21:21:45.107Z,1.30
2022-09-20T21:24:46.990Z,1.30
2022-09-20T21:27:49.361Z,1.40
2022-09-20T21:30:56.404Z,1.27
2022-09-20T21:33:58.074Z,1.80
2022-09-20T21:36:59.955Z,1.90
2022-09-20T21:40:01.811Z,2.10
2022-09-20T21:43:03.223Z,1.92
2022-09-20T21:46:05.044Z,1.50
2022-09-20T21:49:08.560Z,1.55
2022-09-20T21:55:12.105Z,1.20
2022-09-20T21:58:13.705Z,1.40
2022-09-20T22:01:18.308Z,1.45
2022-09-20T22:04:19.717Z,1.00
2022-09-20T22:07:21.389Z,1.52
2022-09-20T22:10:23.645Z,1.25
2022-09-20T22:13:25.440Z,1.42
2022-09-20T22:16:32.069Z,1.42
2022-09-20T22:19:33.464Z,1.63
2022-09-20T22:22:34.883Z,1.45
2022-09-20T22:25:36.871Z,1.20
2022-09-20T22:28:39.081Z,1.60
2022-09-20T22:31:45.693Z,1.30
2022-09-20T22:34:49.953Z,1.25
2022-09-20T22:37:54.924Z,1.20
2022-09-20T22:41:01.030Z,1.17
2022-09-20T22:44:06.831Z,1.75
2022-09-20T22:47:08.821Z,1.77
2022-09-20T22:50:12.861Z,1.38
2022-09-20T22:53:15.198Z,1.40
2022-09-20T22:56:25.252Z,1.50
2022-09-20T22:59:26.687Z,1.40
2022-09-20T23:02:28.081Z,1.60
2022-09-20T23:05:29.481Z,1.80
2022-09-20T23:08:32.171Z,2.78
2022-09-20T23:11:34.881Z,1.80
2022-09-20T23:14:36.302Z,1.20
2022-09-20T23:17:40.856Z,1.50
2022-09-20T23:20:42.253Z,1.60
2022-09-20T23:23:44.752Z,1.80
2022-09-20T23:26:46.556Z,1.37
2022-09-20T23:29:47.973Z,1.10
2022-09-20T23:32:49.398Z,1.50
2022-09-20T23:35:51.490Z,1.27
2022-09-20T23:38:52.985Z,3.10
2022-09-20T23:41:54.777Z,1.75
2022-09-20T23:44:56.145Z,1.20
2022-09-20T23:47:57.537Z,1.33
2022-09-20T23:50:59.161Z,1.20
2022-09-20T23:54:00.741Z,1.15
2022-09-20T23:57:02.139Z,1.85
